sensor_id;sensor_type;location;lat;lon;timestamp;P1;durP1;ratioP1;P2;durP2;ratioP2
15938;SDS011;8068;51.322;9.450;2023-03-08T00:00:16;2.30;;;2.20;;
15938;SDS011;8068;51.322;9.450;2023-03-08T00:02:43;2.20;;;2.10;;
15938;SDS011;8068;51.322;9.450;2023-03-08T00:05:09;2.70;;;2.30;;
15938;SDS011;8068;51.322;9.450;2023-03-08T00:07:36;1.80;;;1.70;;
15938;SDS011;8068;51.322;9.450;2023-03-08T00:10:02;1.53;;;1.43;;
15938;SDS011;8068;51.322;9.450;2023-03-08T00:12:29;1.63;;;1.53;;
15938;SDS011;8068;51.322;9.450;2023-03-08T00:14:55;1.23;;;1.13;;
15938;SDS011;8068;51.322;9.450;2023-03-08T00:17:21;1.20;;;1.10;;
15938;SDS011;8068;51.322;9.450;2023-03-08T00:19:50;1.17;;;1.07;;
15938;SDS011;8068;51.322;9.450;2023-03-08T00:22:16;1.37;;;1.27;;
15938;SDS011;8068;51.322;9.450;2023-03-08T00:24:42;1.23;;;1.10;;
15938;SDS011;8068;51.322;9.450;2023-03-08T00:27:08;1.27;;;1.17;;
15938;SDS011;8068;51.322;9.450;2023-03-08T00:29:34;1.20;;;1.10;;
15938;SDS011;8068;51.322;9.450;2023-03-08T00:32:01;1.50;;;1.40;;
15938;SDS011;8068;51.322;9.450;2023-03-08T00:34:27;2.10;;;2.00;;
15938;SDS011;8068;51.322;9.450;2023-03-08T00:36:53;6.73;;;1.90;;
15938;SDS011;8068;51.322;9.450;2023-03-08T00:39:19;2.47;;;2.37;;
15938;SDS011;8068;51.322;9.450;2023-03-08T00:41:45;2.50;;;2.40;;
15938;SDS011;8068;51.322;9.450;2023-03-08T00:44:11;2.40;;;2.30;;
15938;SDS011;8068;51.322;9.450;2023-03-08T00:46:37;2.30;;;2.20;;
15938;SDS011;8068;51.322;9.450;2023-03-08T00:49:03;2.63;;;2.40;;
15938;SDS011;8068;51.322;9.450;2023-03-08T00:51:30;2.60;;;2.50;;
15938;SDS011;8068;51.322;9.450;2023-03-08T00:53:56;2.93;;;2.83;;
15938;SDS011;8068;51.322;9.450;2023-03-08T00:56:22;5.17;;;4.67;;
15938;SDS011;8068;51.322;9.450;2023-03-08T00:58:48;7.17;;;6.47;;
15938;SDS011;8068;51.322;9.450;2023-03-08T01:01:15;6.70;;;6.30;;
15938;SDS011;8068;51.322;9.450;2023-03-08T01:03:42;7.07;;;6.50;;
15938;SDS011;8068;51.322;9.450;2023-03-08T01:06:10;7.30;;;6.73;;
15938;SDS011;8068;51.322;9.450;2023-03-08T01:08:37;6.43;;;6.13;;
15938;SDS011;8068;51.322;9.450;2023-03-08T01:11:07;8.57;;;6.00;;
15938;SDS011;8068;51.322;9.450;2023-03-08T01:13:40;3.93;;;3.83;;
15938;SDS011;8068;51.322;9.450;2023-03-08T01:16:12;3.47;;;3.37;;
15938;SDS011;8068;51.322;9.450;2023-03-08T01:18:40;4.97;;;4.60;;
15938;SDS011;8068;51.322;9.450;2023-03-08T01:21:06;4.70;;;4.50;;
15938;SDS011;8068;51.322;9.450;2023-03-08T01:23:32;3.07;;;2.97;;
15938;SDS011;8068;51.322;9.450;2023-03-08T01:28:25;2.90;;;2.80;;
15938;SDS011;8068;51.322;9.450;2023-03-08T01:30:51;3.50;;;3.40;;
15938;SDS011;8068;51.322;9.450;2023-03-08T01:33:17;2.93;;;2.83;;
15938;SDS011;8068;51.322;9.450;2023-03-08T01:35:46;2.90;;;2.80;;
15938;SDS011;8068;51.322;9.450;2023-03-08T01:38:12;3.93;;;3.63;;
15938;SDS011;8068;51.322;9.450;2023-03-08T01:40:38;3.27;;;2.97;;
15938;SDS011;8068;51.322;9.450;2023-03-08T01:43:21;3.67;;;3.37;;
15938;SDS011;8068;51.322;9.450;2023-03-08T01:46:31;3.50;;;3.40;;
15938;SDS011;8068;51.322;9.450;2023-03-08T01:48:45;4.07;;;3.87;;
15938;SDS011;8068;51.322;9.450;2023-03-08T01:51:29;4.30;;;3.90;;
15938;SDS011;8068;51.322;9.450;2023-03-08T01:54:22;3.90;;;3.80;;
15938;SDS011;8068;51.322;9.450;2023-03-08T01:56:52;4.10;;;3.90;;
15938;SDS011;8068;51.322;9.450;2023-03-08T01:59:20;4.23;;;4.03;;
15938;SDS011;8068;51.322;9.450;2023-03-08T02:01:47;4.57;;;4.37;;
15938;SDS011;8068;51.322;9.450;2023-03-08T02:04:14;4.70;;;4.40;;
15938;SDS011;8068;51.322;9.450;2023-03-08T02:06:40;4.80;;;4.50;;
15938;SDS011;8068;51.322;9.450;2023-03-08T02:09:07;5.17;;;4.97;;
15938;SDS011;8068;51.322;9.450;2023-03-08T02:14:15;6.30;;;5.83;;
15938;SDS011;8068;51.322;9.450;2023-03-08T02:16:41;6.87;;;6.37;;
15938;SDS011;8068;51.322;9.450;2023-03-08T02:19:19;6.50;;;5.90;;
15938;SDS011;8068;51.322;9.450;2023-03-08T02:21:48;6.90;;;6.43;;
15938;SDS011;8068;51.322;9.450;2023-03-08T02:24:18;6.23;;;5.87;;
15938;SDS011;8068;51.322;9.450;2023-03-08T02:26:49;8.00;;;7.43;;
15938;SDS011;8068;51.322;9.450;2023-03-08T02:29:17;6.80;;;6.40;;
15938;SDS011;8068;51.322;9.450;2023-03-08T02:31:43;6.60;;;6.20;;
15938;SDS011;8068;51.322;9.450;2023-03-08T02:34:09;7.33;;;6.87;;
15938;SDS011;8068;51.322;9.450;2023-03-08T02:36:35;7.60;;;7.10;;
15938;SDS011;8068;51.322;9.450;2023-03-08T02:39:02;6.10;;;5.80;;
15938;SDS011;8068;51.322;9.450;2023-03-08T02:41:28;6.00;;;5.50;;
15938;SDS011;8068;51.322;9.450;2023-03-08T02:43:54;6.67;;;6.13;;
15938;SDS011;8068;51.322;9.450;2023-03-08T02:46:20;5.70;;;5.40;;
15938;SDS011;8068;51.322;9.450;2023-03-08T02:48:46;6.37;;;6.07;;
15938;SDS011;8068;51.322;9.450;2023-03-08T02:51:12;5.60;;;5.30;;
15938;SDS011;8068;51.322;9.450;2023-03-08T02:53:38;6.17;;;5.73;;
15938;SDS011;8068;51.322;9.450;2023-03-08T02:56:05;6.43;;;5.93;;
15938;SDS011;8068;51.322;9.450;2023-03-08T02:58:31;6.90;;;6.50;;
15938;SDS011;8068;51.322;9.450;2023-03-08T03:00:57;5.67;;;5.47;;
15938;SDS011;8068;51.322;9.450;2023-03-08T03:03:23;6.37;;;5.97;;
15938;SDS011;8068;51.322;9.450;2023-03-08T03:05:50;6.67;;;6.27;;
15938;SDS011;8068;51.322;9.450;2023-03-08T03:08:16;5.90;;;5.60;;
15938;SDS011;8068;51.322;9.450;2023-03-08T03:10:42;7.00;;;6.60;;
15938;SDS011;8068;51.322;9.450;2023-03-08T03:13:08;6.83;;;6.37;;
15938;SDS011;8068;51.322;9.450;2023-03-08T03:15:36;6.67;;;6.30;;
15938;SDS011;8068;51.322;9.450;2023-03-08T03:18:03;6.03;;;5.73;;
15938;SDS011;8068;51.322;9.450;2023-03-08T03:20:31;5.43;;;5.23;;
15938;SDS011;8068;51.322;9.450;2023-03-08T03:22:58;6.77;;;6.10;;
15938;SDS011;8068;51.322;9.450;2023-03-08T03:25:24;5.80;;;5.40;;
15938;SDS011;8068;51.322;9.450;2023-03-08T03:27:50;5.73;;;5.43;;
15938;SDS011;8068;51.322;9.450;2023-03-08T03:30:18;6.20;;;5.90;;
15938;SDS011;8068;51.322;9.450;2023-03-08T03:32:44;6.20;;;5.90;;
15938;SDS011;8068;51.322;9.450;2023-03-08T03:35:10;6.20;;;5.90;;
15938;SDS011;8068;51.322;9.450;2023-03-08T03:37:36;5.90;;;5.60;;
15938;SDS011;8068;51.322;9.450;2023-03-08T03:40:03;6.50;;;6.10;;
15938;SDS011;8068;51.322;9.450;2023-03-08T03:42:30;5.87;;;5.57;;
15938;SDS011;8068;51.322;9.450;2023-03-08T03:44:56;5.77;;;5.47;;
15938;SDS011;8068;51.322;9.450;2023-03-08T03:47:22;6.43;;;5.83;;
15938;SDS011;8068;51.322;9.450;2023-03-08T03:49:48;6.60;;;6.20;;
15938;SDS011;8068;51.322;9.450;2023-03-08T03:52:14;5.37;;;5.07;;
15938;SDS011;8068;51.322;9.450;2023-03-08T03:54:40;5.47;;;5.23;;
15938;SDS011;8068;51.322;9.450;2023-03-08T03:57:06;6.13;;;4.83;;
15938;SDS011;8068;51.322;9.450;2023-03-08T03:59:32;6.20;;;5.77;;
15938;SDS011;8068;51.322;9.450;2023-03-08T04:01:59;5.83;;;5.53;;
15938;SDS011;8068;51.322;9.450;2023-03-08T04:04:25;5.40;;;5.20;;
15938;SDS011;8068;51.322;9.450;2023-03-08T04:06:51;4.80;;;4.60;;
15938;SDS011;8068;51.322;9.450;2023-03-08T04:09:17;4.73;;;4.40;;
15938;SDS011;8068;51.322;9.450;2023-03-08T04:11:44;5.23;;;5.00;;
15938;SDS011;8068;51.322;9.450;2023-03-08T04:14:10;3.90;;;3.60;;
15938;SDS011;8068;51.322;9.450;2023-03-08T04:16:37;4.50;;;4.30;;
15938;SDS011;8068;51.322;9.450;2023-03-08T04:19:05;4.20;;;4.10;;
15938;SDS011;8068;51.322;9.450;2023-03-08T04:21:33;5.10;;;4.63;;
15938;SDS011;8068;51.322;9.450;2023-03-08T04:23:59;5.27;;;4.13;;
15938;SDS011;8068;51.322;9.450;2023-03-08T04:26:26;4.33;;;4.13;;
15938;SDS011;8068;51.322;9.450;2023-03-08T04:28:52;4.60;;;4.20;;
15938;SDS011;8068;51.322;9.450;2023-03-08T04:31:28;4.00;;;3.90;;
15938;SDS011;8068;51.322;9.450;2023-03-08T04:33:54;4.70;;;4.40;;
15938;SDS011;8068;51.322;9.450;2023-03-08T04:36:22;4.17;;;4.07;;
15938;SDS011;8068;51.322;9.450;2023-03-08T04:38:48;3.47;;;3.37;;
15938;SDS011;8068;51.322;9.450;2023-03-08T04:41:15;4.10;;;3.90;;
15938;SDS011;8068;51.322;9.450;2023-03-08T04:46:12;4.50;;;4.30;;
15938;SDS011;8068;51.322;9.450;2023-03-08T04:48:39;3.73;;;3.63;;
15938;SDS011;8068;51.322;9.450;2023-03-08T04:51:06;3.90;;;3.70;;
15938;SDS011;8068;51.322;9.450;2023-03-08T04:53:33;3.63;;;3.53;;
15938;SDS011;8068;51.322;9.450;2023-03-08T04:55:59;4.00;;;3.70;;
15938;SDS011;8068;51.322;9.450;2023-03-08T04:58:26;3.40;;;3.20;;
15938;SDS011;8068;51.322;9.450;2023-03-08T05:00:53;3.87;;;3.67;;
15938;SDS011;8068;51.322;9.450;2023-03-08T05:03:19;3.80;;;3.50;;
15938;SDS011;8068;51.322;9.450;2023-03-08T05:05:46;4.90;;;4.60;;
15938;SDS011;8068;51.322;9.450;2023-03-08T05:08:17;4.13;;;4.03;;
15938;SDS011;8068;51.322;9.450;2023-03-08T05:10:54;3.73;;;3.43;;
15938;SDS011;8068;51.322;9.450;2023-03-08T05:13:27;3.80;;;3.60;;
15938;SDS011;8068;51.322;9.450;2023-03-08T05:15:54;3.63;;;3.50;;
15938;SDS011;8068;51.322;9.450;2023-03-08T05:18:21;3.73;;;3.60;;
15938;SDS011;8068;51.322;9.450;2023-03-08T05:20:56;5.20;;;4.03;;
15938;SDS011;8068;51.322;9.450;2023-03-08T05:23:25;4.00;;;3.80;;
15938;SDS011;8068;51.322;9.450;2023-03-08T05:25:54;8.97;;;4.00;;
15938;SDS011;8068;51.322;9.450;2023-03-08T05:28:22;4.27;;;4.07;;
15938;SDS011;8068;51.322;9.450;2023-03-08T05:30:49;3.93;;;3.73;;
15938;SDS011;8068;51.322;9.450;2023-03-08T05:33:16;6.57;;;4.60;;
15938;SDS011;8068;51.322;9.450;2023-03-08T05:35:42;5.87;;;5.23;;
15938;SDS011;8068;51.322;9.450;2023-03-08T05:38:09;4.47;;;4.27;;
15938;SDS011;8068;51.322;9.450;2023-03-08T05:40:36;6.03;;;5.37;;
15938;SDS011;8068;51.322;9.450;2023-03-08T05:43:02;5.40;;;5.10;;
15938;SDS011;8068;51.322;9.450;2023-03-08T05:45:28;5.33;;;5.03;;
15938;SDS011;8068;51.322;9.450;2023-03-08T05:47:54;6.13;;;5.73;;
15938;SDS011;8068;51.322;9.450;2023-03-08T05:50:21;6.07;;;5.80;;
15938;SDS011;8068;51.322;9.450;2023-03-08T05:52:47;6.80;;;6.30;;
15938;SDS011;8068;51.322;9.450;2023-03-08T05:55:13;8.47;;;7.73;;
15938;SDS011;8068;51.322;9.450;2023-03-08T05:57:39;8.97;;;8.10;;
15938;SDS011;8068;51.322;9.450;2023-03-08T06:00:06;11.13;;;8.70;;
15938;SDS011;8068;51.322;9.450;2023-03-08T06:02:32;10.10;;;9.13;;
15938;SDS011;8068;51.322;9.450;2023-03-08T06:04:58;9.77;;;8.97;;
15938;SDS011;8068;51.322;9.450;2023-03-08T06:07:25;9.73;;;8.97;;
15938;SDS011;8068;51.322;9.450;2023-03-08T06:09:51;9.83;;;8.93;;
15938;SDS011;8068;51.322;9.450;2023-03-08T06:12:17;10.60;;;9.70;;
15938;SDS011;8068;51.322;9.450;2023-03-08T06:14:43;11.10;;;10.00;;
15938;SDS011;8068;51.322;9.450;2023-03-08T06:17:09;12.13;;;10.83;;
15938;SDS011;8068;51.322;9.450;2023-03-08T06:19:35;11.17;;;10.17;;
15938;SDS011;8068;51.322;9.450;2023-03-08T06:22:01;11.80;;;10.27;;
15938;SDS011;8068;51.322;9.450;2023-03-08T06:24:27;11.53;;;10.23;;
15938;SDS011;8068;51.322;9.450;2023-03-08T06:26:54;9.70;;;8.90;;
15938;SDS011;8068;51.322;9.450;2023-03-08T06:29:21;9.60;;;8.90;;
15938;SDS011;8068;51.322;9.450;2023-03-08T06:31:47;10.50;;;9.47;;
15938;SDS011;8068;51.322;9.450;2023-03-08T06:34:13;10.10;;;9.20;;
15938;SDS011;8068;51.322;9.450;2023-03-08T06:36:39;10.20;;;9.30;;
15938;SDS011;8068;51.322;9.450;2023-03-08T06:39:06;9.27;;;8.37;;
15938;SDS011;8068;51.322;9.450;2023-03-08T06:41:32;9.30;;;8.60;;
15938;SDS011;8068;51.322;9.450;2023-03-08T06:43:58;9.30;;;8.60;;
15938;SDS011;8068;51.322;9.450;2023-03-08T06:46:24;9.40;;;8.70;;
15938;SDS011;8068;51.322;9.450;2023-03-08T06:48:50;9.03;;;8.33;;
15938;SDS011;8068;51.322;9.450;2023-03-08T06:51:17;9.30;;;8.57;;
15938;SDS011;8068;51.322;9.450;2023-03-08T06:53:44;9.27;;;8.37;;
15938;SDS011;8068;51.322;9.450;2023-03-08T06:56:11;9.97;;;9.00;;
15938;SDS011;8068;51.322;9.450;2023-03-08T06:58:39;9.87;;;8.97;;
15938;SDS011;8068;51.322;9.450;2023-03-08T07:01:05;9.90;;;8.50;;
15938;SDS011;8068;51.322;9.450;2023-03-08T07:03:32;9.80;;;9.00;;
15938;SDS011;8068;51.322;9.450;2023-03-08T07:05:59;9.87;;;8.87;;
15938;SDS011;8068;51.322;9.450;2023-03-08T07:08:25;9.77;;;8.97;;
15938;SDS011;8068;51.322;9.450;2023-03-08T07:10:52;8.20;;;7.67;;
15938;SDS011;8068;51.322;9.450;2023-03-08T07:13:19;9.87;;;8.97;;
15938;SDS011;8068;51.322;9.450;2023-03-08T07:15:46;8.53;;;7.93;;
15938;SDS011;8068;51.322;9.450;2023-03-08T07:18:12;8.93;;;8.20;;
15938;SDS011;8068;51.322;9.450;2023-03-08T07:20:41;8.27;;;7.63;;
15938;SDS011;8068;51.322;9.450;2023-03-08T07:23:08;9.17;;;7.97;;
15938;SDS011;8068;51.322;9.450;2023-03-08T07:25:34;8.43;;;7.80;;
15938;SDS011;8068;51.322;9.450;2023-03-08T07:28:03;6.33;;;6.03;;
15938;SDS011;8068;51.322;9.450;2023-03-08T07:30:29;7.53;;;6.40;;
15938;SDS011;8068;51.322;9.450;2023-03-08T07:32:55;6.97;;;6.37;;
15938;SDS011;8068;51.322;9.450;2023-03-08T07:35:21;5.67;;;5.30;;
15938;SDS011;8068;51.322;9.450;2023-03-08T07:37:48;7.30;;;6.80;;
15938;SDS011;8068;51.322;9.450;2023-03-08T07:40:14;5.30;;;5.00;;
15938;SDS011;8068;51.322;9.450;2023-03-08T07:42:42;6.23;;;5.73;;
15938;SDS011;8068;51.322;9.450;2023-03-08T07:45:09;4.73;;;4.53;;
15938;SDS011;8068;51.322;9.450;2023-03-08T07:47:36;3.67;;;3.47;;
15938;SDS011;8068;51.322;9.450;2023-03-08T07:50:03;5.30;;;3.70;;
15938;SDS011;8068;51.322;9.450;2023-03-08T07:52:29;3.50;;;3.30;;
15938;SDS011;8068;51.322;9.450;2023-03-08T07:54:56;3.00;;;2.90;;
15938;SDS011;8068;51.322;9.450;2023-03-08T07:57:22;3.40;;;3.30;;
15938;SDS011;8068;51.322;9.450;2023-03-08T07:59:49;3.13;;;3.03;;
15938;SDS011;8068;51.322;9.450;2023-03-08T08:02:29;7.03;;;3.47;;
15938;SDS011;8068;51.322;9.450;2023-03-08T08:04:57;2.90;;;2.70;;
15938;SDS011;8068;51.322;9.450;2023-03-08T08:07:23;2.50;;;2.30;;
15938;SDS011;8068;51.322;9.450;2023-03-08T08:09:49;2.40;;;2.30;;
15938;SDS011;8068;51.322;9.450;2023-03-08T08:12:15;2.30;;;2.03;;
15938;SDS011;8068;51.322;9.450;2023-03-08T08:14:41;2.30;;;2.10;;
15938;SDS011;8068;51.322;9.450;2023-03-08T08:17:08;1.80;;;1.70;;
15938;SDS011;8068;51.322;9.450;2023-03-08T08:19:34;1.50;;;1.40;;
15938;SDS011;8068;51.322;9.450;2023-03-08T08:22:00;2.07;;;1.40;;
15938;SDS011;8068;51.322;9.450;2023-03-08T08:24:26;0.97;;;0.90;;
15938;SDS011;8068;51.322;9.450;2023-03-08T08:26:53;1.20;;;1.10;;
15938;SDS011;8068;51.322;9.450;2023-03-08T08:29:19;3.00;;;1.30;;
15938;SDS011;8068;51.322;9.450;2023-03-08T08:31:45;1.37;;;1.27;;
15938;SDS011;8068;51.322;9.450;2023-03-08T08:34:11;2.40;;;1.20;;
15938;SDS011;8068;51.322;9.450;2023-03-08T08:36:37;1.00;;;0.90;;
15938;SDS011;8068;51.322;9.450;2023-03-08T08:39:04;1.03;;;0.93;;
15938;SDS011;8068;51.322;9.450;2023-03-08T08:41:30;1.00;;;0.90;;
15938;SDS011;8068;51.322;9.450;2023-03-08T08:43:57;0.90;;;0.70;;
15938;SDS011;8068;51.322;9.450;2023-03-08T08:46:25;4.40;;;2.00;;
15938;SDS011;8068;51.322;9.450;2023-03-08T08:48:53;4.57;;;1.40;;
15938;SDS011;8068;51.322;9.450;2023-03-08T08:51:20;1.37;;;1.27;;
15938;SDS011;8068;51.322;9.450;2023-03-08T08:53:46;1.60;;;1.17;;
15938;SDS011;8068;51.322;9.450;2023-03-08T08:56:16;1.20;;;1.10;;
15938;SDS011;8068;51.322;9.450;2023-03-08T08:58:54;1.20;;;1.10;;
15938;SDS011;8068;51.322;9.450;2023-03-08T09:01:22;1.60;;;1.50;;
15938;SDS011;8068;51.322;9.450;2023-03-08T09:03:50;2.07;;;1.97;;
15938;SDS011;8068;51.322;9.450;2023-03-08T09:06:18;1.77;;;1.67;;
15938;SDS011;8068;51.322;9.450;2023-03-08T09:08:52;2.20;;;2.10;;
15938;SDS011;8068;51.322;9.450;2023-03-08T09:11:19;2.03;;;1.93;;
15938;SDS011;8068;51.322;9.450;2023-03-08T09:13:46;2.00;;;1.90;;
15938;SDS011;8068;51.322;9.450;2023-03-08T09:16:23;2.47;;;2.37;;
15938;SDS011;8068;51.322;9.450;2023-03-08T09:18:51;2.53;;;2.43;;
15938;SDS011;8068;51.322;9.450;2023-03-08T09:21:17;3.30;;;3.20;;
15938;SDS011;8068;51.322;9.450;2023-03-08T09:23:44;3.23;;;3.07;;
15938;SDS011;8068;51.322;9.450;2023-03-08T09:26:10;3.13;;;3.03;;
15938;SDS011;8068;51.322;9.450;2023-03-08T09:28:37;2.73;;;2.63;;
15938;SDS011;8068;51.322;9.450;2023-03-08T09:31:07;2.20;;;2.10;;
15938;SDS011;8068;51.322;9.450;2023-03-08T09:33:49;2.50;;;2.40;;
15938;SDS011;8068;51.322;9.450;2023-03-08T09:36:18;3.17;;;2.97;;
15938;SDS011;8068;51.322;9.450;2023-03-08T09:38:46;2.50;;;2.40;;
15938;SDS011;8068;51.322;9.450;2023-03-08T09:46:22;2.33;;;2.23;;
15938;SDS011;8068;51.322;9.450;2023-03-08T09:48:53;2.30;;;2.20;;
15938;SDS011;8068;51.322;9.450;2023-03-08T09:51:20;2.30;;;2.20;;
15938;SDS011;8068;51.322;9.450;2023-03-08T09:53:52;2.80;;;2.60;;
15938;SDS011;8068;51.322;9.450;2023-03-08T09:56:36;2.57;;;2.47;;
15938;SDS011;8068;51.322;9.450;2023-03-08T10:09:46;2.30;;;2.20;;
15938;SDS011;8068;51.322;9.450;2023-03-08T10:15:00;2.10;;;2.00;;
15938;SDS011;8068;51.322;9.450;2023-03-08T10:17:35;3.10;;;2.37;;
15938;SDS011;8068;51.322;9.450;2023-03-08T10:20:19;2.30;;;2.20;;
15938;SDS011;8068;51.322;9.450;2023-03-08T10:22:49;2.00;;;1.90;;
15938;SDS011;8068;51.322;9.450;2023-03-08T10:25:23;2.57;;;2.47;;
15938;SDS011;8068;51.322;9.450;2023-03-08T10:27:54;2.57;;;2.47;;
15938;SDS011;8068;51.322;9.450;2023-03-08T10:30:22;2.57;;;2.47;;
15938;SDS011;8068;51.322;9.450;2023-03-08T10:32:59;2.63;;;2.50;;
15938;SDS011;8068;51.322;9.450;2023-03-08T10:35:35;3.13;;;2.90;;
15938;SDS011;8068;51.322;9.450;2023-03-08T10:38:03;2.33;;;2.23;;
15938;SDS011;8068;51.322;9.450;2023-03-08T10:40:30;2.50;;;2.40;;
15938;SDS011;8068;51.322;9.450;2023-03-08T10:42:59;2.50;;;2.40;;
15938;SDS011;8068;51.322;9.450;2023-03-08T10:45:30;2.33;;;2.23;;
15938;SDS011;8068;51.322;9.450;2023-03-08T10:47:58;2.70;;;2.47;;
15938;SDS011;8068;51.322;9.450;2023-03-08T10:50:35;2.70;;;2.60;;
15938;SDS011;8068;51.322;9.450;2023-03-08T10:53:18;4.10;;;3.90;;
15938;SDS011;8068;51.322;9.450;2023-03-08T10:55:45;3.30;;;3.17;;
15938;SDS011;8068;51.322;9.450;2023-03-08T11:01:22;3.47;;;3.27;;
15938;SDS011;8068;51.322;9.450;2023-03-08T11:04:11;3.70;;;3.60;;
15938;SDS011;8068;51.322;9.450;2023-03-08T11:06:39;3.83;;;3.63;;
15938;SDS011;8068;51.322;9.450;2023-03-08T11:11:49;3.70;;;3.60;;
15938;SDS011;8068;51.322;9.450;2023-03-08T11:14:15;4.40;;;4.30;;
15938;SDS011;8068;51.322;9.450;2023-03-08T11:22:04;3.97;;;3.87;;
15938;SDS011;8068;51.322;9.450;2023-03-08T11:36:05;3.80;;;3.70;;
15938;SDS011;8068;51.322;9.450;2023-03-08T11:38:38;3.60;;;3.50;;
15938;SDS011;8068;51.322;9.450;2023-03-08T11:58:29;4.97;;;4.67;;
15938;SDS011;8068;51.322;9.450;2023-03-08T12:01:08;4.97;;;4.77;;
15938;SDS011;8068;51.322;9.450;2023-03-08T12:03:45;4.40;;;4.30;;
15938;SDS011;8068;51.322;9.450;2023-03-08T12:06:23;5.80;;;5.50;;
15938;SDS011;8068;51.322;9.450;2023-03-08T12:09:04;4.53;;;4.33;;
15938;SDS011;8068;51.322;9.450;2023-03-08T12:11:40;4.90;;;4.70;;
15938;SDS011;8068;51.322;9.450;2023-03-08T12:14:15;4.33;;;4.23;;
15938;SDS011;8068;51.322;9.450;2023-03-08T12:16:52;4.50;;;4.30;;
15938;SDS011;8068;51.322;9.450;2023-03-08T12:19:35;4.70;;;4.30;;
15938;SDS011;8068;51.322;9.450;2023-03-08T12:25:16;4.53;;;4.40;;
15938;SDS011;8068;51.322;9.450;2023-03-08T12:30:50;4.90;;;4.70;;
15938;SDS011;8068;51.322;9.450;2023-03-08T12:33:29;4.33;;;4.13;;
15938;SDS011;8068;51.322;9.450;2023-03-08T12:36:03;4.57;;;4.47;;
15938;SDS011;8068;51.322;9.450;2023-03-08T12:38:41;4.10;;;4.00;;
15938;SDS011;8068;51.322;9.450;2023-03-08T12:41:22;4.80;;;4.60;;
15938;SDS011;8068;51.322;9.450;2023-03-08T12:43:59;4.97;;;4.77;;
15938;SDS011;8068;51.322;9.450;2023-03-08T12:46:44;4.60;;;4.40;;
15938;SDS011;8068;51.322;9.450;2023-03-08T12:49:36;4.80;;;4.60;;
15938;SDS011;8068;51.322;9.450;2023-03-08T12:57:36;7.27;;;6.73;;
15938;SDS011;8068;51.322;9.450;2023-03-08T13:12:21;6.17;;;5.77;;
15938;SDS011;8068;51.322;9.450;2023-03-08T13:15:05;6.17;;;5.67;;
15938;SDS011;8068;51.322;9.450;2023-03-08T13:23:22;4.73;;;4.63;;
15938;SDS011;8068;51.322;9.450;2023-03-08T13:26:34;5.30;;;5.07;;
15938;SDS011;8068;51.322;9.450;2023-03-08T13:29:21;5.57;;;5.30;;
15938;SDS011;8068;51.322;9.450;2023-03-08T13:31:52;5.87;;;5.67;;
15938;SDS011;8068;51.322;9.450;2023-03-08T13:34:29;6.50;;;5.10;;
15938;SDS011;8068;51.322;9.450;2023-03-08T13:37:01;6.30;;;5.80;;
15938;SDS011;8068;51.322;9.450;2023-03-08T13:39:33;6.43;;;5.83;;
15938;SDS011;8068;51.322;9.450;2023-03-08T13:42:05;5.93;;;5.70;;
15938;SDS011;8068;51.322;9.450;2023-03-08T13:44:43;6.03;;;5.63;;
15938;SDS011;8068;51.322;9.450;2023-03-08T13:47:18;5.67;;;5.00;;
15938;SDS011;8068;51.322;9.450;2023-03-08T13:49:52;5.60;;;5.30;;
15938;SDS011;8068;51.322;9.450;2023-03-08T13:52:27;6.23;;;5.87;;
15938;SDS011;8068;51.322;9.450;2023-03-08T13:55:01;7.07;;;6.37;;
15938;SDS011;8068;51.322;9.450;2023-03-08T13:57:34;5.50;;;5.30;;
15938;SDS011;8068;51.322;9.450;2023-03-08T14:02:47;5.20;;;5.00;;
15938;SDS011;8068;51.322;9.450;2023-03-08T14:05:20;5.67;;;5.37;;
15938;SDS011;8068;51.322;9.450;2023-03-08T14:07:56;5.77;;;5.57;;
15938;SDS011;8068;51.322;9.450;2023-03-08T14:10:41;5.17;;;4.97;;
15938;SDS011;8068;51.322;9.450;2023-03-08T14:13:21;5.60;;;5.20;;
15938;SDS011;8068;51.322;9.450;2023-03-08T14:15:56;5.93;;;5.10;;
15938;SDS011;8068;51.322;9.450;2023-03-08T14:18:40;5.77;;;5.37;;
15938;SDS011;8068;51.322;9.450;2023-03-08T14:21:14;5.13;;;4.93;;
15938;SDS011;8068;51.322;9.450;2023-03-08T14:23:49;4.93;;;4.73;;
15938;SDS011;8068;51.322;9.450;2023-03-08T14:26:23;5.37;;;5.17;;
15938;SDS011;8068;51.322;9.450;2023-03-08T14:31:32;4.80;;;4.50;;
15938;SDS011;8068;51.322;9.450;2023-03-08T14:34:16;4.93;;;4.73;;
15938;SDS011;8068;51.322;9.450;2023-03-08T14:36:53;5.20;;;4.90;;
15938;SDS011;8068;51.322;9.450;2023-03-08T14:39:26;5.00;;;4.80;;
15938;SDS011;8068;51.322;9.450;2023-03-08T14:42:06;5.43;;;5.20;;
15938;SDS011;8068;51.322;9.450;2023-03-08T14:44:39;5.70;;;5.30;;
15938;SDS011;8068;51.322;9.450;2023-03-08T14:47:23;5.93;;;5.73;;
15938;SDS011;8068;51.322;9.450;2023-03-08T14:50:00;5.10;;;4.77;;
15938;SDS011;8068;51.322;9.450;2023-03-08T14:52:53;4.87;;;4.67;;
15938;SDS011;8068;51.322;9.450;2023-03-08T14:55:31;4.23;;;3.97;;
15938;SDS011;8068;51.322;9.450;2023-03-08T14:58:09;4.93;;;4.63;;
15938;SDS011;8068;51.322;9.450;2023-03-08T15:00:48;4.40;;;4.20;;
15938;SDS011;8068;51.322;9.450;2023-03-08T15:03:19;6.30;;;5.90;;
15938;SDS011;8068;51.322;9.450;2023-03-08T15:05:50;5.30;;;5.00;;
15938;SDS011;8068;51.322;9.450;2023-03-08T15:08:22;5.50;;;5.10;;
15938;SDS011;8068;51.322;9.450;2023-03-08T15:10:53;5.20;;;5.00;;
15938;SDS011;8068;51.322;9.450;2023-03-08T15:13:24;4.40;;;4.30;;
15938;SDS011;8068;51.322;9.450;2023-03-08T15:15:59;5.67;;;5.27;;
15938;SDS011;8068;51.322;9.450;2023-03-08T15:18:29;4.53;;;4.33;;
15938;SDS011;8068;51.322;9.450;2023-03-08T15:20:59;5.10;;;4.80;;
15938;SDS011;8068;51.322;9.450;2023-03-08T15:23:31;4.53;;;4.33;;
15938;SDS011;8068;51.322;9.450;2023-03-08T15:26:06;4.50;;;4.30;;
15938;SDS011;8068;51.322;9.450;2023-03-08T15:28:37;5.30;;;5.10;;
15938;SDS011;8068;51.322;9.450;2023-03-08T15:31:07;5.63;;;5.23;;
15938;SDS011;8068;51.322;9.450;2023-03-08T15:33:38;4.50;;;4.40;;
15938;SDS011;8068;51.322;9.450;2023-03-08T15:36:13;6.13;;;5.60;;
15938;SDS011;8068;51.322;9.450;2023-03-08T15:38:40;7.20;;;6.80;;
15938;SDS011;8068;51.322;9.450;2023-03-08T15:41:16;7.63;;;6.23;;
15938;SDS011;8068;51.322;9.450;2023-03-08T15:43:47;7.20;;;6.70;;
15938;SDS011;8068;51.322;9.450;2023-03-08T15:46:17;6.80;;;6.40;;
15938;SDS011;8068;51.322;9.450;2023-03-08T15:48:47;7.73;;;7.03;;
15938;SDS011;8068;51.322;9.450;2023-03-08T15:51:21;7.70;;;7.10;;
15938;SDS011;8068;51.322;9.450;2023-03-08T15:53:53;7.17;;;6.70;;
15938;SDS011;8068;51.322;9.450;2023-03-08T15:56:23;7.50;;;6.83;;
15938;SDS011;8068;51.322;9.450;2023-03-08T15:58:56;8.27;;;7.47;;
15938;SDS011;8068;51.322;9.450;2023-03-08T16:01:27;8.87;;;8.00;;
15938;SDS011;8068;51.322;9.450;2023-03-08T16:03:57;8.20;;;7.47;;
15938;SDS011;8068;51.322;9.450;2023-03-08T16:06:33;7.37;;;6.67;;
15938;SDS011;8068;51.322;9.450;2023-03-08T16:09:04;9.37;;;7.80;;
15938;SDS011;8068;51.322;9.450;2023-03-08T16:11:35;9.67;;;8.00;;
15938;SDS011;8068;51.322;9.450;2023-03-08T16:14:05;8.30;;;7.60;;
15938;SDS011;8068;51.322;9.450;2023-03-08T16:16:36;8.67;;;8.07;;
15938;SDS011;8068;51.322;9.450;2023-03-08T16:19:15;7.13;;;6.70;;
15938;SDS011;8068;51.322;9.450;2023-03-08T16:21:45;8.60;;;8.00;;
15938;SDS011;8068;51.322;9.450;2023-03-08T16:24:16;8.07;;;7.57;;
15938;SDS011;8068;51.322;9.450;2023-03-08T16:26:47;8.50;;;7.90;;
15938;SDS011;8068;51.322;9.450;2023-03-08T16:29:17;8.10;;;7.50;;
15938;SDS011;8068;51.322;9.450;2023-03-08T16:31:52;9.53;;;8.73;;
15938;SDS011;8068;51.322;9.450;2023-03-08T16:34:24;10.23;;;9.23;;
15938;SDS011;8068;51.322;9.450;2023-03-08T16:36:55;7.87;;;7.27;;
15938;SDS011;8068;51.322;9.450;2023-03-08T16:39:26;9.37;;;8.47;;
15938;SDS011;8068;51.322;9.450;2023-03-08T16:41:57;8.53;;;7.83;;
15938;SDS011;8068;51.322;9.450;2023-03-08T16:44:28;8.63;;;8.03;;
15938;SDS011;8068;51.322;9.450;2023-03-08T16:47:00;8.57;;;8.07;;
15938;SDS011;8068;51.322;9.450;2023-03-08T16:49:34;9.70;;;8.97;;
15938;SDS011;8068;51.322;9.450;2023-03-08T16:52:05;9.10;;;8.40;;
15938;SDS011;8068;51.322;9.450;2023-03-08T16:54:35;10.10;;;9.20;;
15938;SDS011;8068;51.322;9.450;2023-03-08T16:57:06;9.60;;;9.00;;